sensor_id;sensor_type;location;lat;lon;timestamp;P1;durP1;ratioP1;P2;durP2;ratioP2
79687;SDS011;69155;49.464;2.108;2023-10-13T00:01:48;6.70;;;4.27;;
79687;SDS011;69155;49.464;2.108;2023-10-13T00:04:13;12.27;;;4.05;;
79687;SDS011;69155;49.464;2.108;2023-10-13T00:06:39;12.70;;;4.97;;
79687;SDS011;69155;49.464;2.108;2023-10-13T00:09:04;14.27;;;4.57;;
79687;SDS011;69155;49.464;2.108;2023-10-13T00:11:45;12.68;;;3.97;;
79687;SDS011;69155;49.464;2.108;2023-10-13T00:14:14;7.88;;;3.53;;
79687;SDS011;69155;49.464;2.108;2023-10-13T00:16:48;12.27;;;3.50;;
79687;SDS011;69155;49.464;2.108;2023-10-13T00:19:32;8.93;;;3.60;;
79687;SDS011;69155;49.464;2.108;2023-10-13T00:22:12;12.15;;;4.10;;
79687;SDS011;69155;49.464;2.108;2023-10-13T00:24:38;13.35;;;4.15;;
79687;SDS011;69155;49.464;2.108;2023-10-13T00:27:17;11.70;;;3.83;;
79687;SDS011;69155;49.464;2.108;2023-10-13T00:32:43;10.98;;;4.35;;
79687;SDS011;69155;49.464;2.108;2023-10-13T00:35:11;7.20;;;3.42;;
79687;SDS011;69155;49.464;2.108;2023-10-13T00:37:49;7.05;;;3.53;;
79687;SDS011;69155;49.464;2.108;2023-10-13T00:40:18;14.50;;;3.95;;
79687;SDS011;69155;49.464;2.108;2023-10-13T00:43:03;12.60;;;3.97;;
79687;SDS011;69155;49.464;2.108;2023-10-13T00:45:44;12.75;;;3.97;;
79687;SDS011;69155;49.464;2.108;2023-10-13T00:48:13;10.68;;;4.38;;
79687;SDS011;69155;49.464;2.108;2023-10-13T00:50:40;14.98;;;3.30;;
79687;SDS011;69155;49.464;2.108;2023-10-13T00:53:06;11.15;;;4.10;;
79687;SDS011;69155;49.464;2.108;2023-10-13T00:55:32;14.30;;;3.80;;
79687;SDS011;69155;49.464;2.108;2023-10-13T00:58:06;9.32;;;3.22;;
79687;SDS011;69155;49.464;2.108;2023-10-13T01:00:33;9.55;;;3.47;;
79687;SDS011;69155;49.464;2.108;2023-10-13T01:03:14;7.88;;;3.42;;
79687;SDS011;69155;49.464;2.108;2023-10-13T01:05:40;14.27;;;4.13;;
79687;SDS011;69155;49.464;2.108;2023-10-13T01:08:06;14.93;;;4.13;;
79687;SDS011;69155;49.464;2.108;2023-10-13T01:10:35;8.82;;;3.45;;
79687;SDS011;69155;49.464;2.108;2023-10-13T01:13:03;11.95;;;4.65;;
79687;SDS011;69155;49.464;2.108;2023-10-13T01:15:28;11.93;;;3.50;;
79687;SDS011;69155;49.464;2.108;2023-10-13T01:18:11;15.57;;;4.65;;
79687;SDS011;69155;49.464;2.108;2023-10-13T01:20:40;12.30;;;3.97;;
79687;SDS011;69155;49.464;2.108;2023-10-13T01:23:12;9.38;;;3.35;;
79687;SDS011;69155;49.464;2.108;2023-10-13T01:25:44;13.05;;;4.20;;
79687;SDS011;69155;49.464;2.108;2023-10-13T01:28:09;14.90;;;4.43;;
79687;SDS011;69155;49.464;2.108;2023-10-13T01:30:34;8.87;;;3.70;;
79687;SDS011;69155;49.464;2.108;2023-10-13T01:33:03;11.00;;;3.20;;
79687;SDS011;69155;49.464;2.108;2023-10-13T01:35:28;14.75;;;3.58;;
79687;SDS011;69155;49.464;2.108;2023-10-13T01:38:01;8.10;;;3.53;;
79687;SDS011;69155;49.464;2.108;2023-10-13T01:40:27;14.00;;;4.40;;
79687;SDS011;69155;49.464;2.108;2023-10-13T01:42:54;15.38;;;4.15;;
79687;SDS011;69155;49.464;2.108;2023-10-13T01:45:22;10.40;;;3.33;;
79687;SDS011;69155;49.464;2.108;2023-10-13T01:47:53;13.80;;;3.80;;
79687;SDS011;69155;49.464;2.108;2023-10-13T01:50:19;13.53;;;4.40;;
79687;SDS011;69155;49.464;2.108;2023-10-13T01:52:52;10.93;;;4.60;;
79687;SDS011;69155;49.464;2.108;2023-10-13T01:55:25;11.68;;;3.83;;
79687;SDS011;69155;49.464;2.108;2023-10-13T01:57:53;12.45;;;4.90;;
79687;SDS011;69155;49.464;2.108;2023-10-13T02:00:20;9.35;;;3.33;;
79687;SDS011;69155;49.464;2.108;2023-10-13T02:02:45;11.02;;;3.53;;
79687;SDS011;69155;49.464;2.108;2023-10-13T02:05:22;11.38;;;4.15;;
79687;SDS011;69155;49.464;2.108;2023-10-13T02:07:52;12.48;;;4.38;;
79687;SDS011;69155;49.464;2.108;2023-10-13T02:10:19;20.65;;;4.45;;
79687;SDS011;69155;49.464;2.108;2023-10-13T02:12:48;11.48;;;3.85;;
79687;SDS011;69155;49.464;2.108;2023-10-13T02:15:16;9.27;;;3.40;;
79687;SDS011;69155;49.464;2.108;2023-10-13T02:17:52;14.85;;;3.92;;
79687;SDS011;69155;49.464;2.108;2023-10-13T02:20:19;11.23;;;3.75;;
79687;SDS011;69155;49.464;2.108;2023-10-13T02:22:47;11.45;;;3.40;;
79687;SDS011;69155;49.464;2.108;2023-10-13T02:25:16;12.05;;;4.15;;
79687;SDS011;69155;49.464;2.108;2023-10-13T02:27:50;14.60;;;4.57;;
79687;SDS011;69155;49.464;2.108;2023-10-13T02:30:23;13.50;;;4.05;;
79687;SDS011;69155;49.464;2.108;2023-10-13T02:32:51;10.25;;;4.35;;
79687;SDS011;69155;49.464;2.108;2023-10-13T02:35:18;16.15;;;4.75;;
79687;SDS011;69155;49.464;2.108;2023-10-13T02:37:46;11.10;;;3.93;;
79687;SDS011;69155;49.464;2.108;2023-10-13T02:40:19;13.32;;;4.15;;
79687;SDS011;69155;49.464;2.108;2023-10-13T02:42:48;12.77;;;3.97;;
79687;SDS011;69155;49.464;2.108;2023-10-13T02:45:15;9.55;;;4.07;;
79687;SDS011;69155;49.464;2.108;2023-10-13T02:47:42;14.15;;;4.60;;
79687;SDS011;69155;49.464;2.108;2023-10-13T02:50:09;23.40;;;4.13;;
79687;SDS011;69155;49.464;2.108;2023-10-13T02:52:37;17.30;;;4.20;;
79687;SDS011;69155;49.464;2.108;2023-10-13T02:55:06;18.20;;;4.20;;
79687;SDS011;69155;49.464;2.108;2023-10-13T02:57:35;11.48;;;4.30;;
79687;SDS011;69155;49.464;2.108;2023-10-13T03:00:00;9.10;;;4.47;;
79687;SDS011;69155;49.464;2.108;2023-10-13T03:02:37;16.85;;;4.28;;
79687;SDS011;69155;49.464;2.108;2023-10-13T03:05:09;18.67;;;4.47;;
79687;SDS011;69155;49.464;2.108;2023-10-13T03:07:34;13.75;;;4.47;;
79687;SDS011;69155;49.464;2.108;2023-10-13T03:10:08;10.88;;;4.03;;
79687;SDS011;69155;49.464;2.108;2023-10-13T03:12:42;16.52;;;4.35;;
79687;SDS011;69155;49.464;2.108;2023-10-13T03:15:15;9.38;;;3.28;;
79687;SDS011;69155;49.464;2.108;2023-10-13T03:17:45;22.15;;;4.03;;
79687;SDS011;69155;49.464;2.108;2023-10-13T03:20:15;11.80;;;4.22;;
79687;SDS011;69155;49.464;2.108;2023-10-13T03:22:45;21.80;;;4.93;;
79687;SDS011;69155;49.464;2.108;2023-10-13T03:25:14;12.63;;;4.00;;
79687;SDS011;69155;49.464;2.108;2023-10-13T03:27:48;12.50;;;4.25;;
79687;SDS011;69155;49.464;2.108;2023-10-13T03:30:19;17.30;;;5.10;;
79687;SDS011;69155;49.464;2.108;2023-10-13T03:32:46;17.55;;;4.63;;
79687;SDS011;69155;49.464;2.108;2023-10-13T03:35:20;15.43;;;4.60;;
79687;SDS011;69155;49.464;2.108;2023-10-13T03:37:52;16.55;;;5.32;;
79687;SDS011;69155;49.464;2.108;2023-10-13T03:40:18;11.65;;;4.53;;
79687;SDS011;69155;49.464;2.108;2023-10-13T03:45:25;11.77;;;4.80;;
79687;SDS011;69155;49.464;2.108;2023-10-13T03:47:54;16.98;;;5.60;;
79687;SDS011;69155;49.464;2.108;2023-10-13T03:50:19;8.77;;;4.23;;
79687;SDS011;69155;49.464;2.108;2023-10-13T03:52:57;14.57;;;5.28;;
79687;SDS011;69155;49.464;2.108;2023-10-13T03:55:23;15.35;;;4.93;;
79687;SDS011;69155;49.464;2.108;2023-10-13T03:57:54;20.60;;;5.32;;
79687;SDS011;69155;49.464;2.108;2023-10-13T04:00:20;12.20;;;4.32;;
79687;SDS011;69155;49.464;2.108;2023-10-13T04:02:50;11.15;;;4.22;;
79687;SDS011;69155;49.464;2.108;2023-10-13T04:05:34;17.20;;;5.68;;
79687;SDS011;69155;49.464;2.108;2023-10-13T04:08:07;14.10;;;4.40;;
79687;SDS011;69155;49.464;2.108;2023-10-13T04:10:52;13.70;;;4.65;;
79687;SDS011;69155;49.464;2.108;2023-10-13T04:13:23;13.23;;;4.47;;
79687;SDS011;69155;49.464;2.108;2023-10-13T04:16:09;11.70;;;4.32;;
79687;SDS011;69155;49.464;2.108;2023-10-13T04:18:59;17.70;;;5.38;;
79687;SDS011;69155;49.464;2.108;2023-10-13T04:21:30;10.68;;;4.30;;
79687;SDS011;69155;49.464;2.108;2023-10-13T04:24:01;15.23;;;4.60;;
79687;SDS011;69155;49.464;2.108;2023-10-13T04:26:42;15.90;;;5.38;;
79687;SDS011;69155;49.464;2.108;2023-10-13T04:29:28;20.38;;;4.95;;
79687;SDS011;69155;49.464;2.108;2023-10-13T04:32:13;12.85;;;4.93;;
79687;SDS011;69155;49.464;2.108;2023-10-13T04:34:40;13.48;;;5.20;;
79687;SDS011;69155;49.464;2.108;2023-10-13T04:37:10;15.90;;;6.10;;
79687;SDS011;69155;49.464;2.108;2023-10-13T04:39:55;14.88;;;4.45;;
79687;SDS011;69155;49.464;2.108;2023-10-13T04:42:27;20.33;;;5.45;;
79687;SDS011;69155;49.464;2.108;2023-10-13T04:45:15;14.40;;;4.38;;
79687;SDS011;69155;49.464;2.108;2023-10-13T04:48:01;12.07;;;5.03;;
79687;SDS011;69155;49.464;2.108;2023-10-13T04:50:42;15.75;;;5.30;;
79687;SDS011;69155;49.464;2.108;2023-10-13T04:53:16;16.30;;;4.88;;
79687;SDS011;69155;49.464;2.108;2023-10-13T04:56:20;11.15;;;4.63;;
79687;SDS011;69155;49.464;2.108;2023-10-13T04:59:04;10.90;;;4.38;;
79687;SDS011;69155;49.464;2.108;2023-10-13T05:01:48;9.27;;;3.60;;
79687;SDS011;69155;49.464;2.108;2023-10-13T05:04:22;11.75;;;4.22;;
79687;SDS011;69155;49.464;2.108;2023-10-13T05:07:03;11.05;;;4.68;;
79687;SDS011;69155;49.464;2.108;2023-10-13T05:09:49;10.07;;;4.30;;
79687;SDS011;69155;49.464;2.108;2023-10-13T05:12:33;11.77;;;4.47;;
79687;SDS011;69155;49.464;2.108;2023-10-13T05:15:21;16.02;;;5.35;;
79687;SDS011;69155;49.464;2.108;2023-10-13T05:18:05;11.50;;;4.90;;
79687;SDS011;69155;49.464;2.108;2023-10-13T05:20:49;16.48;;;4.68;;
79687;SDS011;69155;49.464;2.108;2023-10-13T05:23:33;20.08;;;5.28;;
79687;SDS011;69155;49.464;2.108;2023-10-13T05:26:17;15.85;;;4.97;;
79687;SDS011;69155;49.464;2.108;2023-10-13T05:29:01;15.43;;;5.30;;
79687;SDS011;69155;49.464;2.108;2023-10-13T05:31:45;14.70;;;5.28;;
79687;SDS011;69155;49.464;2.108;2023-10-13T05:34:31;14.95;;;5.10;;
79687;SDS011;69155;49.464;2.108;2023-10-13T05:37:15;13.60;;;4.90;;
79687;SDS011;69155;49.464;2.108;2023-10-13T05:39:59;12.82;;;5.70;;
79687;SDS011;69155;49.464;2.108;2023-10-13T05:42:43;13.85;;;5.35;;
79687;SDS011;69155;49.464;2.108;2023-10-13T05:45:27;14.55;;;5.32;;
79687;SDS011;69155;49.464;2.108;2023-10-13T05:48:11;12.90;;;5.53;;
79687;SDS011;69155;49.464;2.108;2023-10-13T05:50:38;16.02;;;5.82;;
79687;SDS011;69155;49.464;2.108;2023-10-13T05:53:30;10.27;;;4.85;;
79687;SDS011;69155;49.464;2.108;2023-10-13T05:56:13;13.32;;;5.53;;
79687;SDS011;69155;49.464;2.108;2023-10-13T05:58:57;12.63;;;5.47;;
79687;SDS011;69155;49.464;2.108;2023-10-13T06:01:41;13.40;;;5.22;;
79687;SDS011;69155;49.464;2.108;2023-10-13T06:04:25;16.90;;;5.88;;
79687;SDS011;69155;49.464;2.108;2023-10-13T06:07:09;18.40;;;5.68;;
79687;SDS011;69155;49.464;2.108;2023-10-13T06:09:53;16.95;;;6.03;;
79687;SDS011;69155;49.464;2.108;2023-10-13T06:12:37;16.10;;;5.28;;
79687;SDS011;69155;49.464;2.108;2023-10-13T06:15:21;17.70;;;5.22;;
79687;SDS011;69155;49.464;2.108;2023-10-13T06:18:17;18.00;;;6.28;;
79687;SDS011;69155;49.464;2.108;2023-10-13T06:21:03;14.07;;;5.93;;
79687;SDS011;69155;49.464;2.108;2023-10-13T06:23:47;12.50;;;5.90;;
79687;SDS011;69155;49.464;2.108;2023-10-13T06:26:31;17.25;;;5.95;;
79687;SDS011;69155;49.464;2.108;2023-10-13T06:29:18;14.70;;;6.43;;
79687;SDS011;69155;49.464;2.108;2023-10-13T06:31:57;14.05;;;6.18;;
79687;SDS011;69155;49.464;2.108;2023-10-13T06:34:38;12.40;;;6.20;;
79687;SDS011;69155;49.464;2.108;2023-10-13T06:40:25;15.98;;;5.70;;
79687;SDS011;69155;49.464;2.108;2023-10-13T06:43:37;15.70;;;6.30;;
79687;SDS011;69155;49.464;2.108;2023-10-13T06:46:45;14.90;;;6.63;;
79687;SDS011;69155;49.464;2.108;2023-10-13T06:54:55;10.48;;;6.40;;
79687;SDS011;69155;49.464;2.108;2023-10-13T06:57:28;15.75;;;6.28;;
79687;SDS011;69155;49.464;2.108;2023-10-13T07:00:17;14.15;;;6.47;;
79687;SDS011;69155;49.464;2.108;2023-10-13T07:03:05;10.35;;;5.38;;
79687;SDS011;69155;49.464;2.108;2023-10-13T07:05:43;13.75;;;6.05;;
79687;SDS011;69155;49.464;2.108;2023-10-13T07:08:34;19.02;;;6.40;;
79687;SDS011;69155;49.464;2.108;2023-10-13T07:11:26;21.65;;;5.93;;
79687;SDS011;69155;49.464;2.108;2023-10-13T07:14:13;12.13;;;6.25;;
79687;SDS011;69155;49.464;2.108;2023-10-13T07:20:13;12.75;;;5.95;;
79687;SDS011;69155;49.464;2.108;2023-10-13T07:22:59;15.45;;;6.03;;
79687;SDS011;69155;49.464;2.108;2023-10-13T07:25:39;15.10;;;6.72;;
79687;SDS011;69155;49.464;2.108;2023-10-13T07:28:06;16.75;;;6.03;;
79687;SDS011;69155;49.464;2.108;2023-10-13T08:06:19;13.10;;;5.53;;
79687;SDS011;69155;49.464;2.108;2023-10-13T08:09:13;10.02;;;4.90;;
79687;SDS011;69155;49.464;2.108;2023-10-13T08:49:02;10.15;;;4.28;;
79687;SDS011;69155;49.464;2.108;2023-10-13T08:51:40;16.52;;;5.38;;
79687;SDS011;69155;49.464;2.108;2023-10-13T08:57:37;9.73;;;4.93;;
79687;SDS011;69155;49.464;2.108;2023-10-13T09:00:05;16.83;;;7.65;;
79687;SDS011;69155;49.464;2.108;2023-10-13T09:02:51;15.38;;;5.93;;
79687;SDS011;69155;49.464;2.108;2023-10-13T09:08:48;12.02;;;4.88;;
79687;SDS011;69155;49.464;2.108;2023-10-13T09:11:32;12.52;;;5.28;;
79687;SDS011;69155;49.464;2.108;2023-10-13T09:14:14;9.50;;;5.15;;
79687;SDS011;69155;49.464;2.108;2023-10-13T09:17:01;9.68;;;5.00;;
79687;SDS011;69155;49.464;2.108;2023-10-13T09:19:42;10.43;;;5.25;;
79687;SDS011;69155;49.464;2.108;2023-10-13T09:22:20;16.85;;;5.68;;
79687;SDS011;69155;49.464;2.108;2023-10-13T09:24:55;14.80;;;5.22;;
79687;SDS011;69155;49.464;2.108;2023-10-13T09:27:24;11.30;;;6.30;;
79687;SDS011;69155;49.464;2.108;2023-10-13T09:33:01;10.18;;;5.28;;
79687;SDS011;69155;49.464;2.108;2023-10-13T09:57:17;9.43;;;5.10;;
79687;SDS011;69155;49.464;2.108;2023-10-13T10:18:30;19.23;;;5.05;;
79687;SDS011;69155;49.464;2.108;2023-10-13T10:21:18;11.43;;;5.00;;
79687;SDS011;69155;49.464;2.108;2023-10-13T10:27:06;13.70;;;5.05;;
79687;SDS011;69155;49.464;2.108;2023-10-13T10:29:39;11.73;;;5.03;;
79687;SDS011;69155;49.464;2.108;2023-10-13T10:32:13;17.38;;;5.97;;
79687;SDS011;69155;49.464;2.108;2023-10-13T10:34:38;32.33;;;9.48;;
79687;SDS011;69155;49.464;2.108;2023-10-13T10:37:04;13.30;;;5.70;;
79687;SDS011;69155;49.464;2.108;2023-10-13T10:39:34;12.35;;;5.72;;
79687;SDS011;69155;49.464;2.108;2023-10-13T10:42:10;6.80;;;4.18;;
79687;SDS011;69155;49.464;2.108;2023-10-13T10:47:51;14.95;;;5.43;;
79687;SDS011;69155;49.464;2.108;2023-10-13T10:50:27;11.30;;;4.75;;
79687;SDS011;69155;49.464;2.108;2023-10-13T10:53:04;16.30;;;5.88;;
79687;SDS011;69155;49.464;2.108;2023-10-13T10:55:34;7.47;;;4.28;;
79687;SDS011;69155;49.464;2.108;2023-10-13T10:58:03;12.32;;;4.65;;
79687;SDS011;69155;49.464;2.108;2023-10-13T11:00:48;16.02;;;4.22;;
79687;SDS011;69155;49.464;2.108;2023-10-13T11:03:15;15.75;;;5.18;;
79687;SDS011;69155;49.464;2.108;2023-10-13T11:05:48;9.90;;;4.55;;
79687;SDS011;69155;49.464;2.108;2023-10-13T11:08:22;8.20;;;4.72;;
79687;SDS011;69155;49.464;2.108;2023-10-13T11:10:56;15.18;;;5.05;;
79687;SDS011;69155;49.464;2.108;2023-10-13T11:13:25;14.38;;;5.55;;
79687;SDS011;69155;49.464;2.108;2023-10-13T11:15:57;10.52;;;5.50;;
79687;SDS011;69155;49.464;2.108;2023-10-13T11:18:33;13.10;;;5.03;;
79687;SDS011;69155;49.464;2.108;2023-10-13T11:21:05;9.40;;;5.00;;
79687;SDS011;69155;49.464;2.108;2023-10-13T11:23:34;16.08;;;5.35;;
79687;SDS011;69155;49.464;2.108;2023-10-13T11:26:01;10.65;;;4.30;;
79687;SDS011;69155;49.464;2.108;2023-10-13T11:28:28;13.40;;;5.97;;
79687;SDS011;69155;49.464;2.108;2023-10-13T11:30:54;14.43;;;5.55;;
79687;SDS011;69155;49.464;2.108;2023-10-13T11:33:23;8.95;;;4.72;;
79687;SDS011;69155;49.464;2.108;2023-10-13T11:35:49;13.55;;;5.18;;
79687;SDS011;69155;49.464;2.108;2023-10-13T11:41:03;8.57;;;5.22;;
79687;SDS011;69155;49.464;2.108;2023-10-13T11:43:31;10.68;;;5.28;;
79687;SDS011;69155;49.464;2.108;2023-10-13T11:46:09;9.35;;;4.45;;
79687;SDS011;69155;49.464;2.108;2023-10-13T11:48:34;7.95;;;4.80;;
79687;SDS011;69155;49.464;2.108;2023-10-13T11:51:01;12.32;;;5.13;;
79687;SDS011;69155;49.464;2.108;2023-10-13T11:53:32;16.90;;;5.18;;
79687;SDS011;69155;49.464;2.108;2023-10-13T11:55:57;14.82;;;5.22;;
79687;SDS011;69155;49.464;2.108;2023-10-13T11:58:23;12.20;;;4.67;;
79687;SDS011;69155;49.464;2.108;2023-10-13T12:00:48;12.97;;;4.67;;
79687;SDS011;69155;49.464;2.108;2023-10-13T12:03:18;12.98;;;5.13;;
79687;SDS011;69155;49.464;2.108;2023-10-13T12:06:02;17.23;;;5.10;;
79687;SDS011;69155;49.464;2.108;2023-10-13T12:08:46;16.10;;;5.35;;
79687;SDS011;69155;49.464;2.108;2023-10-13T12:11:18;9.43;;;5.22;;
79687;SDS011;69155;49.464;2.108;2023-10-13T12:13:58;10.45;;;4.70;;
79687;SDS011;69155;49.464;2.108;2023-10-13T12:16:36;11.40;;;5.20;;
79687;SDS011;69155;49.464;2.108;2023-10-13T12:19:01;7.77;;;4.20;;
79687;SDS011;69155;49.464;2.108;2023-10-13T12:21:27;12.60;;;5.30;;
79687;SDS011;69155;49.464;2.108;2023-10-13T12:23:52;7.63;;;4.20;;
79687;SDS011;69155;49.464;2.108;2023-10-13T12:26:19;7.90;;;4.40;;
79687;SDS011;69155;49.464;2.108;2023-10-13T12:28:48;12.45;;;4.18;;
79687;SDS011;69155;49.464;2.108;2023-10-13T12:31:30;10.93;;;5.07;;
79687;SDS011;69155;49.464;2.108;2023-10-13T12:33:57;14.02;;;3.83;;
79687;SDS011;69155;49.464;2.108;2023-10-13T12:36:31;14.15;;;4.40;;
79687;SDS011;69155;49.464;2.108;2023-10-13T12:39:05;13.43;;;3.63;;
79687;SDS011;69155;49.464;2.108;2023-10-13T12:41:34;10.48;;;5.18;;
79687;SDS011;69155;49.464;2.108;2023-10-13T12:44:17;7.13;;;3.78;;
79687;SDS011;69155;49.464;2.108;2023-10-13T12:47:01;9.15;;;4.18;;
79687;SDS011;69155;49.464;2.108;2023-10-13T12:49:48;15.40;;;4.28;;
79687;SDS011;69155;49.464;2.108;2023-10-13T12:52:14;8.35;;;3.70;;
79687;SDS011;69155;49.464;2.108;2023-10-13T12:57:21;15.60;;;4.47;;
79687;SDS011;69155;49.464;2.108;2023-10-13T12:59:48;11.18;;;4.50;;
79687;SDS011;69155;49.464;2.108;2023-10-13T13:02:13;16.15;;;4.60;;
79687;SDS011;69155;49.464;2.108;2023-10-13T13:04:41;11.95;;;4.00;;
79687;SDS011;69155;49.464;2.108;2023-10-13T13:07:09;12.13;;;5.20;;
79687;SDS011;69155;49.464;2.108;2023-10-13T13:09:38;10.60;;;4.10;;
79687;SDS011;69155;49.464;2.108;2023-10-13T13:12:07;12.18;;;5.10;;
79687;SDS011;69155;49.464;2.108;2023-10-13T13:14:32;12.93;;;6.00;;
79687;SDS011;69155;49.464;2.108;2023-10-13T13:17:02;10.32;;;4.85;;
79687;SDS011;69155;49.464;2.108;2023-10-13T13:19:33;15.90;;;3.97;;
79687;SDS011;69155;49.464;2.108;2023-10-13T13:22:04;16.35;;;4.50;;
79687;SDS011;69155;49.464;2.108;2023-10-13T13:24:29;16.52;;;3.60;;
79687;SDS011;69155;49.464;2.108;2023-10-13T13:26:55;16.63;;;3.53;;
79687;SDS011;69155;49.464;2.108;2023-10-13T13:29:21;11.10;;;3.67;;
79687;SDS011;69155;49.464;2.108;2023-10-13T13:31:46;13.40;;;4.60;;
79687;SDS011;69155;49.464;2.108;2023-10-13T13:34:11;12.53;;;4.83;;
79687;SDS011;69155;49.464;2.108;2023-10-13T13:36:40;13.82;;;3.72;;
79687;SDS011;69155;49.464;2.108;2023-10-13T13:39:12;17.05;;;5.05;;
79687;SDS011;69155;49.464;2.108;2023-10-13T13:41:42;10.70;;;4.57;;
79687;SDS011;69155;49.464;2.108;2023-10-13T13:44:09;10.18;;;3.78;;
79687;SDS011;69155;49.464;2.108;2023-10-13T13:46:42;20.27;;;4.18;;
79687;SDS011;69155;49.464;2.108;2023-10-13T13:49:08;15.83;;;4.77;;
79687;SDS011;69155;49.464;2.108;2023-10-13T13:51:42;9.90;;;4.07;;
79687;SDS011;69155;49.464;2.108;2023-10-13T13:54:08;15.35;;;5.50;;
79687;SDS011;69155;49.464;2.108;2023-10-13T13:56:33;12.50;;;4.25;;
79687;SDS011;69155;49.464;2.108;2023-10-13T13:59:03;11.80;;;3.95;;
79687;SDS011;69155;49.464;2.108;2023-10-13T14:01:33;9.60;;;3.70;;
79687;SDS011;69155;49.464;2.108;2023-10-13T14:04:02;14.10;;;4.95;;
79687;SDS011;69155;49.464;2.108;2023-10-13T14:06:28;20.05;;;4.93;;
79687;SDS011;69155;49.464;2.108;2023-10-13T14:08:54;13.52;;;4.07;;
79687;SDS011;69155;49.464;2.108;2023-10-13T14:11:25;11.95;;;4.88;;
79687;SDS011;69155;49.464;2.108;2023-10-13T14:14:26;16.10;;;4.95;;
79687;SDS011;69155;49.464;2.108;2023-10-13T14:16:51;22.47;;;4.77;;
79687;SDS011;69155;49.464;2.108;2023-10-13T14:19:16;13.57;;;4.88;;
79687;SDS011;69155;49.464;2.108;2023-10-13T14:22:02;20.20;;;4.55;;
79687;SDS011;69155;49.464;2.108;2023-10-13T14:24:37;11.05;;;4.15;;
79687;SDS011;69155;49.464;2.108;2023-10-13T14:27:10;13.45;;;3.80;;
79687;SDS011;69155;49.464;2.108;2023-10-13T14:29:56;9.20;;;4.05;;
79687;SDS011;69155;49.464;2.108;2023-10-13T14:32:22;14.85;;;4.88;;
79687;SDS011;69155;49.464;2.108;2023-10-13T14:34:52;17.80;;;5.40;;
79687;SDS011;69155;49.464;2.108;2023-10-13T14:37:21;16.80;;;5.03;;
79687;SDS011;69155;49.464;2.108;2023-10-13T14:39:55;12.43;;;5.00;;
79687;SDS011;69155;49.464;2.108;2023-10-13T14:42:25;7.30;;;4.20;;
79687;SDS011;69155;49.464;2.108;2023-10-13T14:44:50;10.63;;;4.65;;
79687;SDS011;69155;49.464;2.108;2023-10-13T14:47:25;22.58;;;5.57;;
79687;SDS011;69155;49.464;2.108;2023-10-13T14:49:54;14.40;;;5.47;;
79687;SDS011;69155;49.464;2.108;2023-10-13T14:52:20;12.70;;;4.90;;
79687;SDS011;69155;49.464;2.108;2023-10-13T14:54:45;15.10;;;4.05;;
79687;SDS011;69155;49.464;2.108;2023-10-13T14:57:11;10.45;;;4.05;;
79687;SDS011;69155;49.464;2.108;2023-10-13T14:59:39;9.82;;;4.63;;
79687;SDS011;69155;49.464;2.108;2023-10-13T15:02:04;9.20;;;4.60;;
79687;SDS011;69155;49.464;2.108;2023-10-13T15:04:32;15.95;;;5.43;;
79687;SDS011;69155;49.464;2.108;2023-10-13T15:07:01;15.80;;;5.15;;
79687;SDS011;69155;49.464;2.108;2023-10-13T15:09:29;15.32;;;5.20;;
79687;SDS011;69155;49.464;2.108;2023-10-13T15:11:54;18.77;;;4.60;;
79687;SDS011;69155;49.464;2.108;2023-10-13T15:14:22;13.68;;;4.20;;
79687;SDS011;69155;49.464;2.108;2023-10-13T15:16:50;13.27;;;4.78;;
79687;SDS011;69155;49.464;2.108;2023-10-13T15:19:17;17.65;;;6.15;;
79687;SDS011;69155;49.464;2.108;2023-10-13T15:21:42;17.77;;;6.72;;
79687;SDS011;69155;49.464;2.108;2023-10-13T15:24:14;20.95;;;9.25;;
79687;SDS011;69155;49.464;2.108;2023-10-13T15:26:43;20.20;;;9.75;;
79687;SDS011;69155;49.464;2.108;2023-10-13T15:29:13;21.02;;;8.10;;
79687;SDS011;69155;49.464;2.108;2023-10-13T15:31:41;14.65;;;7.75;;
79687;SDS011;69155;49.464;2.108;2023-10-13T15:34:12;18.67;;;7.88;;
79687;SDS011;69155;49.464;2.108;2023-10-13T15:36:47;29.67;;;8.18;;
79687;SDS011;69155;49.464;2.108;2023-10-13T15:39:15;14.27;;;6.57;;
79687;SDS011;69155;49.464;2.108;2023-10-13T15:41:41;19.35;;;6.43;;
79687;SDS011;69155;49.464;2.108;2023-10-13T15:44:12;21.42;;;6.18;;
79687;SDS011;69155;49.464;2.108;2023-10-13T15:46:38;15.68;;;5.93;;
79687;SDS011;69155;49.464;2.108;2023-10-13T15:49:06;17.63;;;5.88;;
79687;SDS011;69155;49.464;2.108;2023-10-13T15:51:31;12.68;;;6.20;;
79687;SDS011;69155;49.464;2.108;2023-10-13T15:53:57;20.40;;;5.88;;
79687;SDS011;69155;49.464;2.108;2023-10-13T15:56:25;12.68;;;5.90;;
79687;SDS011;69155;49.464;2.108;2023-10-13T15:58:50;14.40;;;5.85;;
79687;SDS011;69155;49.464;2.108;2023-10-13T16:01:15;16.90;;;7.27;;
79687;SDS011;69155;49.464;2.108;2023-10-13T16:03:42;22.92;;;6.70;;
79687;SDS011;69155;49.464;2.108;2023-10-13T16:06:23;18.33;;;7.30;;
79687;SDS011;69155;49.464;2.108;2023-10-13T16:08:50;18.98;;;9.38;;
79687;SDS011;69155;49.464;2.108;2023-10-13T16:11:25;22.58;;;9.93;;
79687;SDS011;69155;49.464;2.108;2023-10-13T16:13:51;35.20;;;11.32;;
79687;SDS011;69155;49.464;2.108;2023-10-13T16:16:22;30.25;;;12.15;;
79687;SDS011;69155;49.464;2.108;2023-10-13T16:18:51;25.75;;;12.73;;
79687;SDS011;69155;49.464;2.108;2023-10-13T16:21:16;26.85;;;13.45;;
79687;SDS011;69155;49.464;2.108;2023-10-13T16:23:42;23.45;;;14.57;;
79687;SDS011;69155;49.464;2.108;2023-10-13T16:26:10;38.88;;;17.52;;
79687;SDS011;69155;49.464;2.108;2023-10-13T16:28:36;31.97;;;17.53;;
79687;SDS011;69155;49.464;2.108;2023-10-13T16:31:02;34.58;;;17.30;;
79687;SDS011;69155;49.464;2.108;2023-10-13T16:33:27;31.08;;;17.35;;
79687;SDS011;69155;49.464;2.108;2023-10-13T16:35:54;28.65;;;17.00;;
79687;SDS011;69155;49.464;2.108;2023-10-13T16:38:22;41.55;;;18.98;;
79687;SDS011;69155;49.464;2.108;2023-10-13T16:40:52;41.65;;;19.30;;
79687;SDS011;69155;49.464;2.108;2023-10-13T16:43:21;30.98;;;16.70;;
79687;SDS011;69155;49.464;2.108;2023-10-13T16:45:46;28.25;;;17.98;;
79687;SDS011;69155;49.464;2.108;2023-10-13T22:07:03;2.90;;;0.75;;
79687;SDS011;69155;49.464;2.108;2023-10-13T22:19:48;4.85;;;0.95;;
79687;SDS011;69155;49.464;2.108;2023-10-13T23:16:12;1.63;;;0.82;;
79687;SDS011;69155;49.464;2.108;2023-10-13T23:47:52;5.57;;;1.30;;
79687;SDS011;69155;49.464;2.108;2023-10-13T23:54:08;1.55;;;0.77;;
